createdAt,value
2023-05-21T00:02:10.316Z,11.97
2023-05-21T00:04:42.398Z,11.43
2023-05-21T00:07:12.853Z,20.00
2023-05-21T00:09:41.571Z,22.77
2023-05-21T00:12:10.867Z,29.17
2023-05-21T00:14:40.125Z,24.27
2023-05-21T00:17:08.734Z,38.30
2023-05-21T00:19:37.514Z,28.93
2023-05-21T00:22:06.566Z,24.47
2023-05-21T00:24:36.566Z,25.37
2023-05-21T00:27:05.424Z,38.20
2023-05-21T00:29:33.997Z,34.03
2023-05-21T00:32:02.829Z,31.30
2023-05-21T00:34:31.752Z,26.17
2023-05-21T00:37:02.940Z,34.27
2023-05-21T00:39:31.516Z,16.80
2023-05-21T00:42:01.764Z,9.73
2023-05-21T00:44:34.563Z,11.33
2023-05-21T00:47:03.560Z,8.37
2023-05-21T00:49:32.924Z,11.33
2023-05-21T00:52:01.920Z,25.07
2023-05-21T00:54:31.751Z,32.70
2023-05-21T00:57:02.596Z,32.77
2023-05-21T00:59:31.540Z,26.47
2023-05-21T01:02:05.669Z,25.07
2023-05-21T01:04:34.432Z,21.57
2023-05-21T01:07:03.011Z,24.27
2023-05-21T01:09:31.751Z,46.53
2023-05-21T01:12:01.999Z,33.20
2023-05-21T01:14:33.183Z,23.90
2023-05-21T01:17:03.628Z,21.83
2023-05-21T01:19:33.148Z,13.50
2023-05-21T01:22:05.650Z,18.37
2023-05-21T01:24:36.044Z,34.27
2023-05-21T01:27:06.952Z,30.08
2023-05-21T01:29:35.633Z,33.80
2023-05-21T01:32:22.335Z,18.77
2023-05-21T01:34:58.024Z,10.00
2023-05-21T01:37:31.476Z,7.37
2023-05-21T01:40:07.259Z,6.03
2023-05-21T01:42:37.611Z,8.03
2023-05-21T01:45:08.220Z,40.47
2023-05-21T01:47:38.412Z,15.60
2023-05-21T01:50:08.310Z,23.13
2023-05-21T01:52:37.542Z,13.57
2023-05-21T01:55:08.908Z,15.00
2023-05-21T01:57:38.049Z,12.33
2023-05-21T02:00:09.301Z,34.78
2023-05-21T02:02:38.009Z,28.92
2023-05-21T02:05:07.438Z,33.83
2023-05-21T02:07:37.666Z,24.23
2023-05-21T02:10:08.966Z,38.47
2023-05-21T02:12:37.728Z,28.50
2023-05-21T02:15:07.408Z,43.63
2023-05-21T02:17:36.356Z,45.33
2023-05-21T02:20:11.717Z,46.80
2023-05-21T02:22:40.896Z,36.63
2023-05-21T02:25:12.359Z,21.30
2023-05-21T02:27:42.651Z,9.30
2023-05-21T02:30:13.034Z,7.63
2023-05-21T02:32:43.262Z,15.43
2023-05-21T02:35:13.483Z,21.23
2023-05-21T02:37:44.376Z,13.03
2023-05-21T02:40:14.824Z,9.80
2023-05-21T02:42:43.590Z,7.30
2023-05-21T02:45:13.458Z,7.43
2023-05-21T02:47:42.197Z,7.70
2023-05-21T02:50:11.736Z,8.00
2023-05-21T02:52:40.346Z,7.37
2023-05-21T02:55:10.062Z,6.77
2023-05-21T02:57:40.045Z,7.30
2023-05-21T03:00:10.346Z,8.40
2023-05-21T03:02:39.302Z,7.83
2023-05-21T03:05:09.236Z,8.60
2023-05-21T03:07:37.777Z,10.83
2023-05-21T03:10:07.587Z,11.07
2023-05-21T03:12:36.126Z,10.30
2023-05-21T03:15:06.646Z,7.23
2023-05-21T03:17:35.256Z,7.87
2023-05-21T03:20:05.465Z,9.13
2023-05-21T03:22:34.045Z,7.60
2023-05-21T03:25:03.243Z,7.80
2023-05-21T03:27:32.271Z,17.50
2023-05-21T03:30:01.163Z,19.43
2023-05-21T03:32:31.303Z,20.43
2023-05-21T03:34:59.948Z,16.50
2023-05-21T03:37:28.600Z,20.17
2023-05-21T03:39:57.223Z,20.73
2023-05-21T03:42:25.871Z,15.67
2023-05-21T03:44:54.415Z,9.87
2023-05-21T03:47:23.552Z,17.03
2023-05-21T03:49:53.534Z,10.60
2023-05-21T03:52:22.158Z,12.43
2023-05-21T03:54:50.719Z,9.90
2023-05-21T03:57:19.384Z,8.47
2023-05-21T03:59:48.006Z,8.63
2023-05-21T04:02:16.744Z,12.73
2023-05-21T04:04:45.809Z,8.87
2023-05-21T04:07:19.429Z,12.47
2023-05-21T04:09:48.093Z,12.83
2023-05-21T04:12:18.226Z,12.00
2023-05-21T04:14:46.898Z,6.65
2023-05-21T04:17:15.502Z,7.63
2023-05-21T04:19:44.235Z,8.13
2023-05-21T04:22:13.019Z,7.05
2023-05-21T04:24:43.938Z,6.50
2023-05-21T04:27:14.228Z,5.50
2023-05-21T04:29:43.353Z,7.63
2023-05-21T04:32:11.990Z,8.82
2023-05-21T04:34:40.664Z,7.65
2023-05-21T04:37:09.635Z,5.60
2023-05-21T04:39:38.203Z,3.53
2023-05-21T04:42:11.232Z,4.10
2023-05-21T04:44:40.560Z,11.63
2023-05-21T04:47:09.352Z,4.93
2023-05-21T04:49:37.979Z,7.25
2023-05-21T04:52:06.824Z,7.90
2023-05-21T04:54:36.745Z,5.75
2023-05-21T04:57:05.441Z,4.60
2023-05-21T04:59:35.862Z,5.22
2023-05-21T05:02:04.470Z,4.85
2023-05-21T05:04:33.462Z,6.88
2023-05-21T05:07:02.180Z,6.03
2023-05-21T05:09:31.905Z,5.00
2023-05-21T05:12:00.754Z,8.00
2023-05-21T05:14:29.344Z,8.38
2023-05-21T05:17:00.937Z,4.70
2023-05-21T05:19:30.068Z,7.55
2023-05-21T05:21:58.782Z,6.03
2023-05-21T05:24:27.416Z,3.15
2023-05-21T05:26:56.006Z,3.33
2023-05-21T05:29:24.699Z,3.28
2023-05-21T05:31:53.317Z,3.95
2023-05-21T05:34:23.848Z,5.20
2023-05-21T05:36:52.553Z,4.40
2023-05-21T05:39:21.106Z,3.95
2023-05-21T05:41:49.780Z,4.82
2023-05-21T05:44:18.409Z,3.53
2023-05-21T05:46:47.231Z,3.13
2023-05-21T05:49:15.992Z,3.13
2023-05-21T05:51:46.088Z,4.43
2023-05-21T05:54:14.674Z,3.80
2023-05-21T05:56:43.287Z,2.95
2023-05-21T05:59:11.929Z,3.00
2023-05-21T06:01:40.468Z,2.80
2023-05-21T06:04:09.079Z,3.67
2023-05-21T06:06:38.926Z,2.92
2023-05-21T06:09:09.483Z,3.40
2023-05-21T06:11:38.033Z,5.85
2023-05-21T06:14:06.694Z,3.53
2023-05-21T06:16:35.396Z,2.47
2023-05-21T06:19:04.103Z,5.95
2023-05-21T06:21:32.949Z,4.38
2023-05-21T06:24:01.628Z,5.18
2023-05-21T06:26:32.024Z,5.13
2023-05-21T06:29:00.713Z,4.72
2023-05-21T06:31:29.300Z,3.47
2023-05-21T06:33:58.676Z,3.53
2023-05-21T06:36:30.231Z,3.10
2023-05-21T06:38:58.990Z,6.88
2023-05-21T06:41:27.756Z,4.25
2023-05-21T06:43:57.828Z,3.90
2023-05-21T06:46:26.655Z,5.13
2023-05-21T06:48:55.436Z,3.60
2023-05-21T06:51:24.058Z,4.00
2023-05-21T06:53:53.233Z,3.58
2023-05-21T06:56:22.214Z,3.92
2023-05-21T06:58:50.911Z,6.28
2023-05-21T07:01:22.607Z,6.13
2023-05-21T07:03:51.477Z,4.72
2023-05-21T07:06:20.096Z,2.95
2023-05-21T07:08:50.040Z,7.10
2023-05-21T07:11:18.773Z,3.08
2023-05-21T07:13:47.492Z,2.90
2023-05-21T07:16:18.174Z,2.78
2023-05-21T07:18:48.342Z,7.13
2023-05-21T07:21:17.000Z,2.85
2023-05-21T07:23:45.643Z,2.60
2023-05-21T07:26:14.318Z,4.82
2023-05-21T07:28:43.023Z,3.35
2023-05-21T07:31:13.416Z,3.10
2023-05-21T07:33:42.122Z,2.53
2023-05-21T07:36:12.199Z,2.80
2023-05-21T07:38:40.764Z,3.53
2023-05-21T07:41:09.403Z,2.88
2023-05-21T07:43:38.239Z,4.72
2023-05-21T07:46:06.922Z,4.18
2023-05-21T07:48:35.841Z,2.65
2023-05-21T07:51:05.274Z,8.65
2023-05-21T07:53:35.272Z,4.40
2023-05-21T07:56:03.984Z,4.28
2023-05-21T07:58:32.764Z,4.80
2023-05-21T08:01:01.626Z,2.72
2023-05-21T08:03:31.634Z,3.25
2023-05-21T08:06:00.385Z,2.65
2023-05-21T08:08:28.968Z,4.80
2023-05-21T08:10:59.262Z,5.97
2023-05-21T08:13:27.995Z,2.55
2023-05-21T08:15:56.904Z,2.58
2023-05-21T08:18:25.676Z,3.55
2023-05-21T08:20:54.756Z,2.50
2023-05-21T08:23:23.535Z,2.42
2023-05-21T08:25:53.616Z,6.20
2023-05-21T08:28:24.728Z,5.35
2023-05-21T08:31:07.329Z,3.55
2023-05-21T08:33:41.164Z,3.27
2023-05-21T08:36:11.323Z,2.65
2023-05-21T08:38:40.504Z,3.45
2023-05-21T08:41:10.975Z,3.25
2023-05-21T08:43:42.504Z,4.53
2023-05-21T08:46:14.845Z,4.95
2023-05-21T08:48:44.521Z,2.78
2023-05-21T08:51:13.769Z,2.58
2023-05-21T08:53:42.841Z,3.25
2023-05-21T08:56:13.325Z,2.65
2023-05-21T08:58:44.021Z,2.90
2023-05-21T09:01:14.236Z,3.83
2023-05-21T09:03:43.927Z,3.00
2023-05-21T09:06:14.349Z,2.60
2023-05-21T09:08:46.586Z,2.33
2023-05-21T09:11:16.118Z,6.55
2023-05-21T09:13:47.484Z,2.50
2023-05-21T09:16:16.230Z,2.53
2023-05-21T09:18:44.942Z,3.85
2023-05-21T09:21:28.495Z,8.25
2023-05-21T09:23:58.358Z,4.25
2023-05-21T09:26:27.413Z,2.50
2023-05-21T09:29:01.820Z,2.83
2023-05-21T09:31:33.223Z,4.50
2023-05-21T09:34:02.243Z,2.10
2023-05-21T09:36:31.060Z,3.17
2023-05-21T09:39:00.824Z,4.80
2023-05-21T09:41:37.067Z,2.00
2023-05-21T09:44:07.895Z,2.53
2023-05-21T09:46:41.576Z,2.47
2023-05-21T09:49:26.802Z,3.70
2023-05-21T09:51:58.122Z,4.15
2023-05-21T09:54:27.585Z,2.22
2023-05-21T09:56:56.449Z,2.20
2023-05-21T09:59:37.221Z,4.40
2023-05-21T10:02:17.084Z,3.40
2023-05-21T10:04:54.892Z,2.53
2023-05-21T10:07:30.836Z,2.50
2023-05-21T10:10:01.541Z,4.32
2023-05-21T10:12:33.912Z,2.55
2023-05-21T10:15:09.957Z,2.42
2023-05-21T10:17:39.722Z,2.70
2023-05-21T10:20:12.056Z,2.58
2023-05-21T10:22:41.348Z,2.80
2023-05-21T10:25:10.843Z,3.63
2023-05-21T10:27:39.901Z,4.03
2023-05-21T10:30:11.371Z,2.53
2023-05-21T10:32:42.290Z,3.08
2023-05-21T10:35:11.887Z,5.00
2023-05-21T10:37:41.677Z,5.47
2023-05-21T10:40:11.564Z,2.75
2023-05-21T10:43:13.421Z,4.05
2023-05-21T10:46:07.670Z,2.53
2023-05-21T10:48:52.735Z,6.07
2023-05-21T10:51:25.494Z,7.45
2023-05-21T10:54:32.678Z,2.72
2023-05-21T10:57:20.666Z,3.55
2023-05-21T10:59:51.281Z,4.25
2023-05-21T11:02:27.656Z,3.38
2023-05-21T11:05:07.777Z,4.22
2023-05-21T11:07:58.117Z,2.30
2023-05-21T11:10:45.310Z,4.07
2023-05-21T11:13:22.054Z,2.63
2023-05-21T11:16:11.880Z,3.88
2023-05-21T11:19:04.411Z,3.00
2023-05-21T11:21:36.808Z,2.75
2023-05-21T11:24:09.378Z,3.85
2023-05-21T11:27:05.383Z,2.70
2023-05-21T11:29:42.354Z,3.92
2023-05-21T11:32:12.672Z,3.22
2023-05-21T11:34:50.058Z,2.67
2023-05-21T11:37:30.518Z,6.22
2023-05-21T11:40:26.387Z,2.97
2023-05-21T11:42:56.807Z,2.78
2023-05-21T11:45:34.087Z,2.40
2023-05-21T11:48:06.256Z,4.47
2023-05-21T11:50:40.466Z,2.75
2023-05-21T11:53:11.169Z,2.60
2023-05-21T11:55:43.910Z,4.72
2023-05-21T11:58:16.914Z,2.60
2023-05-21T12:01:01.079Z,3.72
2023-05-21T12:03:32.228Z,5.68
2023-05-21T12:06:09.650Z,3.20
2023-05-21T12:08:58.652Z,2.13
2023-05-21T12:11:28.216Z,2.63
2023-05-21T12:13:57.214Z,2.10
2023-05-21T12:16:27.235Z,1.95
2023-05-21T12:18:56.667Z,3.03
2023-05-21T12:21:29.819Z,2.30
2023-05-21T12:23:58.778Z,3.67
2023-05-21T12:26:28.524Z,5.25
2023-05-21T12:28:58.714Z,4.45
2023-05-21T12:31:28.661Z,3.88
2023-05-21T12:33:57.529Z,6.88
2023-05-21T12:36:32.399Z,2.10
2023-05-21T12:39:01.337Z,2.92
2023-05-21T12:41:31.827Z,5.28
2023-05-21T12:44:02.984Z,2.83
2023-05-21T12:46:33.037Z,2.95
2023-05-21T12:49:01.849Z,8.07
2023-05-21T12:51:41.209Z,3.88
2023-05-21T12:54:14.658Z,12.07
2023-05-21T12:56:46.713Z,3.13
2023-05-21T12:59:16.862Z,3.25
2023-05-21T13:01:49.466Z,2.20
2023-05-21T13:04:21.631Z,2.55
2023-05-21T13:06:51.810Z,3.60
2023-05-21T13:09:22.584Z,2.30
2023-05-21T13:11:51.228Z,2.30
2023-05-21T13:14:19.842Z,6.20
2023-05-21T13:16:49.339Z,2.00
2023-05-21T13:19:19.300Z,2.25
2023-05-21T13:21:49.299Z,3.92
2023-05-21T13:24:19.772Z,2.25
2023-05-21T13:26:50.703Z,3.53
2023-05-21T13:29:19.571Z,2.50
2023-05-21T13:31:48.397Z,2.53
2023-05-21T13:34:20.719Z,2.17
2023-05-21T13:36:50.049Z,7.93
2023-05-21T13:39:27.136Z,2.22
2023-05-21T13:42:00.683Z,10.43
2023-05-21T13:44:33.757Z,19.10
2023-05-21T13:47:02.890Z,2.05
2023-05-21T13:49:31.823Z,3.03
2023-05-21T13:52:02.472Z,2.42
2023-05-21T13:54:33.019Z,3.90
2023-05-21T13:57:01.790Z,2.78
2023-05-21T13:59:33.275Z,3.95
2023-05-21T14:02:04.869Z,2.70
2023-05-21T14:04:33.587Z,7.00
2023-05-21T14:07:02.461Z,2.15
2023-05-21T14:09:33.721Z,1.98
2023-05-21T14:12:03.948Z,3.65
2023-05-21T14:14:34.342Z,2.90
2023-05-21T14:17:03.129Z,4.00
2023-05-21T14:19:32.342Z,2.38
2023-05-21T14:22:01.446Z,2.45
2023-05-21T14:24:31.648Z,2.45
2023-05-21T14:27:00.511Z,2.53
2023-05-21T14:29:29.217Z,2.20
2023-05-21T14:31:58.311Z,3.42
2023-05-21T14:34:27.118Z,3.78
2023-05-21T14:36:57.449Z,1.98
2023-05-21T14:39:26.222Z,3.53
2023-05-21T14:41:56.539Z,2.55
2023-05-21T14:44:25.555Z,3.25
2023-05-21T14:46:54.266Z,3.55
2023-05-21T14:49:23.059Z,5.07
2023-05-21T14:51:51.881Z,2.92
2023-05-21T14:54:20.809Z,2.00
2023-05-21T14:56:52.641Z,3.58
2023-05-21T14:59:24.119Z,2.10
2023-05-21T15:01:53.518Z,2.42
2023-05-21T15:04:22.667Z,2.03
2023-05-21T15:06:52.155Z,2.00
2023-05-21T15:09:21.227Z,3.50
2023-05-21T15:11:52.874Z,3.78
2023-05-21T15:14:23.661Z,2.63
2023-05-21T15:16:52.847Z,4.30
2023-05-21T15:19:22.062Z,3.47
2023-05-21T15:21:54.146Z,3.08
2023-05-21T15:24:23.061Z,35.65
2023-05-21T15:26:54.875Z,7.22
2023-05-21T15:29:25.322Z,6.40
2023-05-21T15:31:54.155Z,4.47
2023-05-21T15:34:22.947Z,3.63
2023-05-21T15:36:51.808Z,4.00
2023-05-21T15:39:20.427Z,4.63
2023-05-21T15:41:49.217Z,3.85
2023-05-21T15:44:17.977Z,2.75
2023-05-21T15:46:50.381Z,4.30
2023-05-21T15:49:19.161Z,4.50
2023-05-21T15:51:50.676Z,2.40
2023-05-21T15:54:19.775Z,3.08
2023-05-21T15:56:48.653Z,3.50
2023-05-21T15:59:17.638Z,2.40
2023-05-21T16:01:48.481Z,2.33
2023-05-21T16:04:20.398Z,3.75
2023-05-21T16:06:49.527Z,2.60
2023-05-21T16:09:18.402Z,2.72
2023-05-21T16:11:49.060Z,2.70
2023-05-21T16:14:17.810Z,2.17
2023-05-21T16:16:48.079Z,2.05
2023-05-21T16:19:16.849Z,3.95
2023-05-21T16:21:45.803Z,2.35
2023-05-21T16:24:14.605Z,2.95
2023-05-21T16:26:46.295Z,2.53
2023-05-21T16:29:15.059Z,4.25
2023-05-21T16:31:43.871Z,2.78
2023-05-21T16:34:14.912Z,2.88
2023-05-21T16:36:43.725Z,3.05
2023-05-21T16:39:12.544Z,2.33
2023-05-21T16:41:41.454Z,3.38
2023-05-21T16:44:10.461Z,2.70
2023-05-21T16:46:39.362Z,2.13
2023-05-21T16:49:08.473Z,2.30
2023-05-21T16:51:39.149Z,2.72
2023-05-21T16:54:08.104Z,2.85
2023-05-21T16:56:40.880Z,2.30
2023-05-21T16:59:09.796Z,2.78
2023-05-21T17:01:38.961Z,2.58
2023-05-21T17:04:07.892Z,2.45
2023-05-21T17:06:38.172Z,2.92
2023-05-21T17:09:07.084Z,6.97
2023-05-21T17:11:38.724Z,2.22
2023-05-21T17:14:07.453Z,2.58
2023-05-21T17:16:36.637Z,2.70
2023-05-21T17:19:05.677Z,2.40
2023-05-21T17:21:34.700Z,2.15
2023-05-21T17:24:05.056Z,2.72
2023-05-21T17:26:33.910Z,3.65
2023-05-21T17:29:02.705Z,2.28
2023-05-21T17:31:33.153Z,3.40
2023-05-21T17:34:05.018Z,3.15
2023-05-21T17:36:41.839Z,2.22
2023-05-21T17:39:15.863Z,2.90
2023-05-21T17:41:44.766Z,2.95
2023-05-21T17:44:13.904Z,2.40
2023-05-21T17:46:45.379Z,5.40
2023-05-21T17:49:14.553Z,2.83
2023-05-21T17:51:44.562Z,3.63
2023-05-21T17:54:15.435Z,6.30
2023-05-21T17:56:47.331Z,4.80
2023-05-21T17:59:17.250Z,4.97
2023-05-21T18:04:43.294Z,4.25
2023-05-21T18:07:12.070Z,5.70
2023-05-21T18:09:40.764Z,4.05
2023-05-21T18:12:10.014Z,8.95
2023-05-21T18:14:38.635Z,24.45
2023-05-21T18:17:07.706Z,13.40
2023-05-21T18:19:36.556Z,9.75
2023-05-21T18:22:06.908Z,15.30
2023-05-21T18:24:37.244Z,19.83
2023-05-21T18:27:06.381Z,17.35
2023-05-21T18:29:35.148Z,13.90
2023-05-21T18:32:04.377Z,13.55
2023-05-21T18:34:35.181Z,11.65
2023-05-21T18:37:04.065Z,10.45
2023-05-21T18:39:34.327Z,9.63
2023-05-21T18:42:13.000Z,10.57
2023-05-21T18:44:47.724Z,8.95
2023-05-21T18:47:16.755Z,8.35
2023-05-21T18:49:45.862Z,11.48
2023-05-21T18:52:15.089Z,9.30
2023-05-21T18:54:45.201Z,6.80
2023-05-21T18:57:13.933Z,7.60
2023-05-21T18:59:42.682Z,8.45
2023-05-21T19:02:11.778Z,7.63
2023-05-21T19:04:40.611Z,9.15
2023-05-21T19:07:09.546Z,9.20
2023-05-21T19:09:38.318Z,8.27
2023-05-21T19:12:09.241Z,11.52
2023-05-21T19:14:37.995Z,7.28
2023-05-21T19:17:08.734Z,13.38
2023-05-21T19:19:40.073Z,5.68
2023-05-21T19:22:08.876Z,5.13
2023-05-21T19:24:37.625Z,7.85
2023-05-21T19:27:08.172Z,5.15
2023-05-21T19:29:37.036Z,9.07
2023-05-21T19:32:05.993Z,5.65
2023-05-21T19:34:42.541Z,6.85
2023-05-21T19:37:11.191Z,6.10
2023-05-21T19:39:40.288Z,5.13
2023-05-21T19:42:11.861Z,8.35
2023-05-21T19:44:44.635Z,3.85
2023-05-21T19:47:15.198Z,5.32
2023-05-21T19:49:44.031Z,11.55
2023-05-21T19:52:12.887Z,5.05
2023-05-21T19:54:41.761Z,5.88
2023-05-21T19:57:13.513Z,9.32
2023-05-21T19:59:42.117Z,6.68
2023-05-21T20:02:15.510Z,9.15
2023-05-21T20:04:44.150Z,5.32
2023-05-21T20:07:12.767Z,4.30
2023-05-21T20:09:41.781Z,6.35
2023-05-21T20:12:11.978Z,6.13
2023-05-21T20:14:41.914Z,9.55
2023-05-21T20:17:10.811Z,9.45
2023-05-21T20:19:39.447Z,7.65
2023-05-21T20:22:08.356Z,7.18
2023-05-21T20:24:37.001Z,7.03
2023-05-21T20:27:05.903Z,7.45
2023-05-21T20:29:36.010Z,5.22
2023-05-21T20:32:04.733Z,9.63
2023-05-21T20:34:33.530Z,7.40
2023-05-21T20:37:02.561Z,6.30
2023-05-21T20:39:31.502Z,6.32
2023-05-21T20:42:01.281Z,6.53
2023-05-21T20:44:29.913Z,6.03
2023-05-21T20:47:01.871Z,6.10
2023-05-21T20:49:33.350Z,5.07
2023-05-21T20:52:02.285Z,5.38
2023-05-21T20:54:32.375Z,7.85
2023-05-21T20:57:01.589Z,9.68
2023-05-21T20:59:30.254Z,5.70
2023-05-21T21:02:00.581Z,8.48
2023-05-21T21:04:29.364Z,10.20
2023-05-21T21:07:00.604Z,7.05
2023-05-21T21:09:29.214Z,11.93
2023-05-21T21:12:06.305Z,9.50
2023-05-21T21:14:40.262Z,7.95
2023-05-21T21:17:10.430Z,14.63
2023-05-21T21:19:39.181Z,7.75
2023-05-21T21:22:07.964Z,7.22
2023-05-21T21:24:36.568Z,8.35
2023-05-21T21:27:05.350Z,9.80
2023-05-21T21:29:33.981Z,6.78
2023-05-21T21:32:02.808Z,14.10
2023-05-21T21:34:32.918Z,9.03
2023-05-21T21:37:01.571Z,7.97
2023-05-21T21:39:30.260Z,8.77
2023-05-21T21:41:58.965Z,12.88
2023-05-21T21:44:27.684Z,9.70
2023-05-21T21:46:56.320Z,11.83
2023-05-21T21:49:24.975Z,7.82
2023-05-21T21:51:57.957Z,8.32
2023-05-21T21:54:27.947Z,13.10
2023-05-21T21:56:56.626Z,10.10
2023-05-21T21:59:25.312Z,7.90
2023-05-21T22:01:54.026Z,11.75
2023-05-21T22:04:22.723Z,7.72
2023-05-21T22:06:52.059Z,8.30
2023-05-21T22:09:23.470Z,7.77
2023-05-21T22:11:52.173Z,10.60
2023-05-21T22:14:21.282Z,8.40
2023-05-21T22:16:53.417Z,7.30
2023-05-21T22:19:23.027Z,9.43
2023-05-21T22:21:51.652Z,11.07
2023-05-21T22:24:32.060Z,7.65
2023-05-21T22:27:02.036Z,7.80
2023-05-21T22:29:30.678Z,9.63
2023-05-21T22:31:59.592Z,8.43
2023-05-21T22:34:28.213Z,7.17
2023-05-21T22:36:56.928Z,10.13
2023-05-21T22:39:27.081Z,10.50
2023-05-21T22:41:55.855Z,11.03
2023-05-21T22:44:24.641Z,8.43
2023-05-21T22:46:53.720Z,7.97
2023-05-21T22:49:22.781Z,7.53
2023-05-21T22:51:52.862Z,6.70
2023-05-21T22:54:21.596Z,6.60
2023-05-21T22:56:51.676Z,9.83
2023-05-21T22:59:20.277Z,10.63
2023-05-21T23:01:49.165Z,9.07
2023-05-21T23:04:26.419Z,9.10
2023-05-21T23:07:01.167Z,7.23
2023-05-21T23:09:29.825Z,8.73
2023-05-21T23:11:59.914Z,9.37
2023-05-21T23:14:28.556Z,9.20
2023-05-21T23:17:02.286Z,6.93
2023-05-21T23:19:31.654Z,7.37
2023-05-21T23:22:00.438Z,8.57
2023-05-21T23:24:29.866Z,6.53
2023-05-21T23:27:03.119Z,7.20
2023-05-21T23:29:32.239Z,12.23
2023-05-21T23:32:01.323Z,6.25
2023-05-21T23:34:30.393Z,8.57
2023-05-21T23:37:00.520Z,9.60
2023-05-21T23:39:30.057Z,6.77
2023-05-21T23:42:01.223Z,7.27
2023-05-21T23:44:29.831Z,6.90
2023-05-21T23:46:58.416Z,6.80
2023-05-21T23:49:26.993Z,8.80
2023-05-21T23:51:56.594Z,7.03
2023-05-21T23:54:25.156Z,7.70
2023-05-21T23:56:53.809Z,7.53
2023-05-21T23:59:23.788Z,7.20
